sensor_id;sensor_type;location;lat;lon;timestamp;pressure;altitude;pressure_sealevel;temperature;humidity
12868;BME280;33517;49.866;8.320;2023-04-02T00:00:15;99607.03;;;11.03;90.76
12868;BME280;33517;49.866;8.320;2023-04-02T00:03:08;99610.50;;;11.04;90.59
12868;BME280;33517;49.866;8.320;2023-04-02T00:06:31;99611.69;;;11.01;91.10
12868;BME280;33517;49.866;8.320;2023-04-02T00:09:35;99612.44;;;10.95;90.42
12868;BME280;33517;49.866;8.320;2023-04-02T00:12:28;99621.34;;;10.94;90.67
12868;BME280;33517;49.866;8.320;2023-04-02T00:15:20;99625.53;;;10.89;90.91
12868;BME280;33517;49.866;8.320;2023-04-02T00:18:14;99623.25;;;10.86;91.14
12868;BME280;33517;49.866;8.320;2023-04-02T00:21:11;99623.88;;;10.88;91.17
12868;BME280;33517;49.866;8.320;2023-04-02T00:24:10;99632.22;;;10.91;90.64
12868;BME280;33517;49.866;8.320;2023-04-02T00:27:08;99632.84;;;10.93;90.43
12868;BME280;33517;49.866;8.320;2023-04-02T00:30:02;99638.94;;;10.94;90.44
12868;BME280;33517;49.866;8.320;2023-04-02T00:32:54;99645.19;;;10.93;90.79
12868;BME280;33517;49.866;8.320;2023-04-02T00:35:47;99644.22;;;10.94;90.65
12868;BME280;33517;49.866;8.320;2023-04-02T00:38:41;99643.56;;;10.92;90.65
12868;BME280;33517;49.866;8.320;2023-04-02T00:41:36;99643.31;;;10.87;90.28
12868;BME280;33517;49.866;8.320;2023-04-02T00:44:29;99638.84;;;10.87;90.63
12868;BME280;33517;49.866;8.320;2023-04-02T00:47:24;99643.13;;;10.88;90.71
12868;BME280;33517;49.866;8.320;2023-04-02T00:50:21;99635.97;;;10.82;90.47
12868;BME280;33517;49.866;8.320;2023-04-02T00:53:23;99639.16;;;10.78;90.57
12868;BME280;33517;49.866;8.320;2023-04-02T00:56:22;99639.16;;;10.78;91.14
12868;BME280;33517;49.866;8.320;2023-04-02T00:59:19;99647.44;;;10.75;91.22
12868;BME280;33517;49.866;8.320;2023-04-02T01:02:24;99647.03;;;10.78;91.38
12868;BME280;33517;49.866;8.320;2023-04-02T01:05:21;99651.88;;;10.74;91.15
12868;BME280;33517;49.866;8.320;2023-04-02T01:08:18;99647.00;;;10.71;90.81
12868;BME280;33517;49.866;8.320;2023-04-02T01:11:23;99656.19;;;10.82;90.46
12868;BME280;33517;49.866;8.320;2023-04-02T01:14:28;99656.41;;;10.80;90.60
12868;BME280;33517;49.866;8.320;2023-04-02T01:17:37;99662.47;;;10.81;91.06
12868;BME280;33517;49.866;8.320;2023-04-02T01:20:57;99661.13;;;10.85;90.31
12868;BME280;33517;49.866;8.320;2023-04-02T01:24:00;99666.53;;;10.83;90.12
12868;BME280;33517;49.866;8.320;2023-04-02T01:26:56;99667.00;;;10.87;90.17
12868;BME280;33517;49.866;8.320;2023-04-02T01:29:52;99670.63;;;10.86;90.25
12868;BME280;33517;49.866;8.320;2023-04-02T01:32:46;99673.66;;;10.83;90.25
12868;BME280;33517;49.866;8.320;2023-04-02T01:35:43;99674.28;;;10.85;90.50
12868;BME280;33517;49.866;8.320;2023-04-02T01:38:39;99673.50;;;10.91;90.26
12868;BME280;33517;49.866;8.320;2023-04-02T01:41:39;99672.97;;;10.95;89.78
12868;BME280;33517;49.866;8.320;2023-04-02T01:44:38;99677.88;;;10.98;89.58
12868;BME280;33517;49.866;8.320;2023-04-02T01:47:32;99681.13;;;11.00;89.34
12868;BME280;33517;49.866;8.320;2023-04-02T01:50:26;99680.31;;;11.00;89.39
12868;BME280;33517;49.866;8.320;2023-04-02T01:53:23;99687.41;;;10.99;89.11
12868;BME280;33517;49.866;8.320;2023-04-02T01:56:15;99698.75;;;11.00;88.94
12868;BME280;33517;49.866;8.320;2023-04-02T01:59:09;99702.16;;;11.00;88.96
12868;BME280;33517;49.866;8.320;2023-04-02T02:02:03;99702.81;;;11.02;89.10
12868;BME280;33517;49.866;8.320;2023-04-02T02:04:57;99700.16;;;11.02;89.29
12868;BME280;33517;49.866;8.320;2023-04-02T02:07:50;99700.56;;;10.99;88.74
12868;BME280;33517;49.866;8.320;2023-04-02T02:10:42;99700.94;;;10.96;88.99
12868;BME280;33517;49.866;8.320;2023-04-02T02:13:35;99706.75;;;10.92;88.93
12868;BME280;33517;49.866;8.320;2023-04-02T02:16:28;99712.75;;;10.86;89.60
12868;BME280;33517;49.866;8.320;2023-04-02T02:19:26;99711.66;;;10.80;89.22
12868;BME280;33517;49.866;8.320;2023-04-02T02:22:25;99716.47;;;10.77;89.61
12868;BME280;33517;49.866;8.320;2023-04-02T02:25:21;99716.03;;;10.73;89.75
12868;BME280;33517;49.866;8.320;2023-04-02T02:28:16;99728.91;;;10.68;89.65
12868;BME280;33517;49.866;8.320;2023-04-02T02:31:12;99724.38;;;10.62;90.34
12868;BME280;33517;49.866;8.320;2023-04-02T02:34:11;99729.00;;;10.60;90.26
12868;BME280;33517;49.866;8.320;2023-04-02T02:37:11;99731.63;;;10.60;90.49
12868;BME280;33517;49.866;8.320;2023-04-02T02:40:10;99736.53;;;10.63;90.28
12868;BME280;33517;49.866;8.320;2023-04-02T02:43:05;99734.81;;;10.56;90.56
12868;BME280;33517;49.866;8.320;2023-04-02T02:46:03;99740.06;;;10.56;90.38
12868;BME280;33517;49.866;8.320;2023-04-02T02:48:56;99745.59;;;10.61;89.96
12868;BME280;33517;49.866;8.320;2023-04-02T02:51:52;99746.81;;;10.58;90.64
12868;BME280;33517;49.866;8.320;2023-04-02T02:54:50;99754.50;;;10.60;90.43
12868;BME280;33517;49.866;8.320;2023-04-02T02:57:46;99751.88;;;10.60;90.20
12868;BME280;33517;49.866;8.320;2023-04-02T03:00:39;99753.69;;;10.59;90.68
12868;BME280;33517;49.866;8.320;2023-04-02T03:03:33;99752.22;;;10.57;90.64
12868;BME280;33517;49.866;8.320;2023-04-02T03:06:25;99762.59;;;10.58;90.31
12868;BME280;33517;49.866;8.320;2023-04-02T03:09:21;99760.22;;;10.63;90.51
12868;BME280;33517;49.866;8.320;2023-04-02T03:12:28;99765.94;;;10.67;90.22
12868;BME280;33517;49.866;8.320;2023-04-02T03:15:30;99763.75;;;10.70;89.85
12868;BME280;33517;49.866;8.320;2023-04-02T03:18:31;99769.19;;;10.69;89.88
12868;BME280;33517;49.866;8.320;2023-04-02T03:21:27;99769.38;;;10.67;89.86
12868;BME280;33517;49.866;8.320;2023-04-02T03:24:26;99781.72;;;10.67;90.24
12868;BME280;33517;49.866;8.320;2023-04-02T03:27:24;99789.41;;;10.68;90.23
12868;BME280;33517;49.866;8.320;2023-04-02T03:30:28;99790.97;;;10.63;90.33
12868;BME280;33517;49.866;8.320;2023-04-02T03:33:23;99798.66;;;10.64;90.26
12868;BME280;33517;49.866;8.320;2023-04-02T03:36:19;99795.69;;;10.67;90.23
12868;BME280;33517;49.866;8.320;2023-04-02T03:39:18;99800.59;;;10.70;90.26
12868;BME280;33517;49.866;8.320;2023-04-02T03:42:16;99807.31;;;10.73;90.04
12868;BME280;33517;49.866;8.320;2023-04-02T03:45:14;99812.38;;;10.74;90.07
12868;BME280;33517;49.866;8.320;2023-04-02T03:48:13;99808.13;;;10.73;90.25
12868;BME280;33517;49.866;8.320;2023-04-02T03:51:13;99825.53;;;10.74;89.52
12868;BME280;33517;49.866;8.320;2023-04-02T03:54:12;99824.28;;;10.70;89.71
12868;BME280;33517;49.866;8.320;2023-04-02T03:57:09;99836.59;;;10.70;90.28
12868;BME280;33517;49.866;8.320;2023-04-02T04:00:14;99831.53;;;10.68;89.83
12868;BME280;33517;49.866;8.320;2023-04-02T04:03:11;99840.44;;;10.67;90.02
12868;BME280;33517;49.866;8.320;2023-04-02T04:06:06;99842.03;;;10.68;89.97
12868;BME280;33517;49.866;8.320;2023-04-02T04:09:06;99844.88;;;10.67;90.13
12868;BME280;33517;49.866;8.320;2023-04-02T04:12:08;99851.78;;;10.68;90.15
12868;BME280;33517;49.866;8.320;2023-04-02T04:15:07;99853.41;;;10.69;90.11
12868;BME280;33517;49.866;8.320;2023-04-02T04:18:04;99861.09;;;10.70;90.38
12868;BME280;33517;49.866;8.320;2023-04-02T04:21:04;99863.75;;;10.70;90.16
12868;BME280;33517;49.866;8.320;2023-04-02T04:24:00;99871.28;;;10.73;90.34
12868;BME280;33517;49.866;8.320;2023-04-02T04:26:57;99872.91;;;10.74;89.75
12868;BME280;33517;49.866;8.320;2023-04-02T04:29:57;99884.09;;;10.76;89.97
12868;BME280;33517;49.866;8.320;2023-04-02T04:32:56;99877.84;;;10.77;90.41
12868;BME280;33517;49.866;8.320;2023-04-02T04:35:54;99888.53;;;10.76;89.96
12868;BME280;33517;49.866;8.320;2023-04-02T04:38:49;99891.53;;;10.73;90.09
12868;BME280;33517;49.866;8.320;2023-04-02T04:41:45;99897.59;;;10.73;90.25
12868;BME280;33517;49.866;8.320;2023-04-02T04:44:42;99903.84;;;10.72;90.17
12868;BME280;33517;49.866;8.320;2023-04-02T04:47:39;99899.41;;;10.73;90.49
12868;BME280;33517;49.866;8.320;2023-04-02T04:50:36;99903.50;;;10.75;90.24
12868;BME280;33517;49.866;8.320;2023-04-02T04:53:30;99913.03;;;10.76;90.28
12868;BME280;33517;49.866;8.320;2023-04-02T04:56:25;99916.94;;;10.80;90.16
12868;BME280;33517;49.866;8.320;2023-04-02T04:59:21;99921.56;;;10.78;90.21
12868;BME280;33517;49.866;8.320;2023-04-02T05:02:18;99923.56;;;10.76;90.36
12868;BME280;33517;49.866;8.320;2023-04-02T05:05:17;99933.09;;;10.77;90.38
12868;BME280;33517;49.866;8.320;2023-04-02T05:08:12;99933.09;;;10.77;90.37
12868;BME280;33517;49.866;8.320;2023-04-02T05:11:09;99933.72;;;10.79;90.07
12868;BME280;33517;49.866;8.320;2023-04-02T05:14:11;99945.72;;;10.82;90.61
12868;BME280;33517;49.866;8.320;2023-04-02T05:17:11;99944.25;;;10.79;90.91
12868;BME280;33517;49.866;8.320;2023-04-02T05:20:10;99952.63;;;10.83;90.34
12868;BME280;33517;49.866;8.320;2023-04-02T05:23:12;99949.63;;;10.86;90.07
12868;BME280;33517;49.866;8.320;2023-04-02T05:26:10;99960.59;;;10.89;90.33
12868;BME280;33517;49.866;8.320;2023-04-02T05:29:09;99970.63;;;10.94;90.34
12868;BME280;33517;49.866;8.320;2023-04-02T05:32:08;99965.16;;;10.95;90.59
12868;BME280;33517;49.866;8.320;2023-04-02T05:35:05;99969.09;;;10.99;89.82
12868;BME280;33517;49.866;8.320;2023-04-02T05:37:57;99980.91;;;11.03;90.46
12868;BME280;33517;49.866;8.320;2023-04-02T05:40:58;99976.47;;;11.04;90.09
12868;BME280;33517;49.866;8.320;2023-04-02T05:43:58;99984.69;;;11.01;90.01
12868;BME280;33517;49.866;8.320;2023-04-02T05:46:56;99988.09;;;11.09;90.53
12868;BME280;33517;49.866;8.320;2023-04-02T05:49:54;99996.72;;;11.18;90.19
12868;BME280;33517;49.866;8.320;2023-04-02T05:52:50;99995.66;;;11.27;89.85
12868;BME280;33517;49.866;8.320;2023-04-02T05:55:51;99996.56;;;11.34;89.45
12868;BME280;33517;49.866;8.320;2023-04-02T05:58:47;100001.28;;;11.39;89.51
12868;BME280;33517;49.866;8.320;2023-04-02T06:01:42;100000.56;;;11.45;88.78
12868;BME280;33517;49.866;8.320;2023-04-02T06:04:43;100008.75;;;11.50;89.27
12868;BME280;33517;49.866;8.320;2023-04-02T06:07:42;100012.50;;;11.55;88.87
12868;BME280;33517;49.866;8.320;2023-04-02T06:10:41;100021.50;;;11.61;89.12
12868;BME280;33517;49.866;8.320;2023-04-02T06:13:36;100024.75;;;11.63;89.20
12868;BME280;33517;49.866;8.320;2023-04-02T06:16:29;100030.03;;;11.63;89.89
12868;BME280;33517;49.866;8.320;2023-04-02T06:19:26;100039.16;;;11.75;88.92
12868;BME280;33517;49.866;8.320;2023-04-02T06:22:25;100039.44;;;11.80;89.82
12868;BME280;33517;49.866;8.320;2023-04-02T06:25:25;100043.88;;;11.94;88.79
12868;BME280;33517;49.866;8.320;2023-04-02T06:28:21;100043.41;;;12.05;88.13
12868;BME280;33517;49.866;8.320;2023-04-02T06:31:24;100051.06;;;12.15;89.05
12868;BME280;33517;49.866;8.320;2023-04-02T06:34:19;100057.50;;;12.27;88.79
12868;BME280;33517;49.866;8.320;2023-04-02T06:37:15;100061.94;;;12.26;87.84
12868;BME280;33517;49.866;8.320;2023-04-02T06:40:26;100067.94;;;12.35;87.79
12868;BME280;33517;49.866;8.320;2023-04-02T06:43:24;100076.66;;;12.35;87.03
12868;BME280;33517;49.866;8.320;2023-04-02T06:46:26;100084.97;;;12.32;87.90
12868;BME280;33517;49.866;8.320;2023-04-02T06:49:23;100091.41;;;12.30;87.83
12868;BME280;33517;49.866;8.320;2023-04-02T06:52:19;100091.03;;;12.33;87.83
12868;BME280;33517;49.866;8.320;2023-04-02T06:55:26;100095.06;;;12.14;87.91
12868;BME280;33517;49.866;8.320;2023-04-02T06:58:19;100104.09;;;12.05;88.76
12868;BME280;33517;49.866;8.320;2023-04-02T07:01:14;100111.00;;;12.21;88.06
12868;BME280;33517;49.866;8.320;2023-04-02T07:04:08;100112.53;;;12.30;87.34
12868;BME280;33517;49.866;8.320;2023-04-02T07:07:00;100117.97;;;12.43;88.19
12868;BME280;33517;49.866;8.320;2023-04-02T07:09:52;100126.78;;;12.50;86.79
12868;BME280;33517;49.866;8.320;2023-04-02T07:12:45;100128.03;;;12.54;87.63
12868;BME280;33517;49.866;8.320;2023-04-02T07:15:37;100143.09;;;12.53;87.05
12868;BME280;33517;49.866;8.320;2023-04-02T07:18:31;100140.16;;;12.48;86.13
12868;BME280;33517;49.866;8.320;2023-04-02T07:21:24;100148.19;;;12.55;86.76
12868;BME280;33517;49.866;8.320;2023-04-02T07:24:16;100151.16;;;12.66;85.97
12868;BME280;33517;49.866;8.320;2023-04-02T07:27:08;100159.94;;;12.88;85.93
12868;BME280;33517;49.866;8.320;2023-04-02T07:30:02;100168.38;;;12.98;86.51
12868;BME280;33517;49.866;8.320;2023-04-02T07:32:54;100166.84;;;13.04;85.09
12868;BME280;33517;49.866;8.320;2023-04-02T07:35:46;100178.75;;;12.99;85.25
12868;BME280;33517;49.866;8.320;2023-04-02T07:38:38;100178.88;;;12.91;85.25
12868;BME280;33517;49.866;8.320;2023-04-02T07:41:30;100179.81;;;12.84;85.16
12868;BME280;33517;49.866;8.320;2023-04-02T07:44:22;100189.28;;;12.78;86.46
12868;BME280;33517;49.866;8.320;2023-04-02T07:47:15;100195.56;;;12.77;85.51
12868;BME280;33517;49.866;8.320;2023-04-02T07:50:08;100206.50;;;12.74;85.46
12868;BME280;33517;49.866;8.320;2023-04-02T07:53:00;100225.22;;;12.21;84.00
12868;BME280;33517;49.866;8.320;2023-04-02T07:55:52;100232.31;;;11.61;85.51
12868;BME280;33517;49.866;8.320;2023-04-02T07:58:44;100246.00;;;11.03;86.63
12868;BME280;33517;49.866;8.320;2023-04-02T08:01:36;100254.69;;;10.65;87.24
12868;BME280;33517;49.866;8.320;2023-04-02T08:04:29;100251.03;;;10.19;88.79
12868;BME280;33517;49.866;8.320;2023-04-02T08:07:21;100253.97;;;9.92;90.38
12868;BME280;33517;49.866;8.320;2023-04-02T08:10:13;100266.78;;;9.79;91.48
12868;BME280;33517;49.866;8.320;2023-04-02T08:13:07;100259.72;;;9.79;92.21
12868;BME280;33517;49.866;8.320;2023-04-02T08:15:59;100277.28;;;9.79;92.56
12868;BME280;33517;49.866;8.320;2023-04-02T08:18:51;100289.44;;;9.64;92.68
12868;BME280;33517;49.866;8.320;2023-04-02T08:21:44;100292.00;;;9.48;93.61
12868;BME280;33517;49.866;8.320;2023-04-02T08:24:37;100291.22;;;9.47;93.78
12868;BME280;33517;49.866;8.320;2023-04-02T08:27:29;100308.75;;;9.39;94.27
12868;BME280;33517;49.866;8.320;2023-04-02T08:30:21;100310.22;;;9.41;95.34
12868;BME280;33517;49.866;8.320;2023-04-02T08:33:13;100313.06;;;9.56;95.17
12868;BME280;33517;49.866;8.320;2023-04-02T08:36:05;100318.81;;;9.67;94.20
12868;BME280;33517;49.866;8.320;2023-04-02T08:38:59;100326.56;;;9.77;94.07
12868;BME280;33517;49.866;8.320;2023-04-02T08:41:57;100330.47;;;9.65;93.55
12868;BME280;33517;49.866;8.320;2023-04-02T08:45:02;100333.56;;;9.52;93.85
12868;BME280;33517;49.866;8.320;2023-04-02T08:47:57;100349.47;;;9.43;93.46
12868;BME280;33517;49.866;8.320;2023-04-02T08:50:49;100359.59;;;9.29;92.65
12868;BME280;33517;49.866;8.320;2023-04-02T08:53:41;100363.56;;;9.34;94.15
12868;BME280;33517;49.866;8.320;2023-04-02T08:56:38;100373.06;;;9.35;92.68
12868;BME280;33517;49.866;8.320;2023-04-02T08:59:35;100376.31;;;9.28;92.73
12868;BME280;33517;49.866;8.320;2023-04-02T09:02:30;100381.94;;;9.42;92.24
12868;BME280;33517;49.866;8.320;2023-04-02T09:05:27;100383.53;;;9.26;92.57
12868;BME280;33517;49.866;8.320;2023-04-02T09:08:20;100388.53;;;9.38;91.84
12868;BME280;33517;49.866;8.320;2023-04-02T09:11:19;100406.06;;;9.37;91.20
12868;BME280;33517;49.866;8.320;2023-04-02T09:14:16;100407.63;;;9.22;91.41
12868;BME280;33517;49.866;8.320;2023-04-02T09:17:16;100416.81;;;9.18;91.04
12868;BME280;33517;49.866;8.320;2023-04-02T09:20:15;100418.44;;;9.19;90.74
12868;BME280;33517;49.866;8.320;2023-04-02T09:23:12;100423.63;;;9.37;90.36
12868;BME280;33517;49.866;8.320;2023-04-02T09:26:19;100433.84;;;9.48;90.02
12868;BME280;33517;49.866;8.320;2023-04-02T09:29:34;100440.94;;;9.55;89.96
12868;BME280;33517;49.866;8.320;2023-04-02T09:32:44;100441.13;;;9.62;89.00
12868;BME280;33517;49.866;8.320;2023-04-02T09:35:53;100455.41;;;9.59;89.18
12868;BME280;33517;49.866;8.320;2023-04-02T09:39:00;100455.53;;;9.50;88.59
12868;BME280;33517;49.866;8.320;2023-04-02T09:41:56;100457.13;;;9.43;87.93
12868;BME280;33517;49.866;8.320;2023-04-02T09:44:49;100465.28;;;9.65;88.57
12868;BME280;33517;49.866;8.320;2023-04-02T09:47:41;100471.59;;;9.80;87.46
12868;BME280;33517;49.866;8.320;2023-04-02T09:50:33;100476.00;;;9.72;87.35
12868;BME280;33517;49.866;8.320;2023-04-02T09:53:29;100483.38;;;9.68;87.16
12868;BME280;33517;49.866;8.320;2023-04-02T09:56:22;100486.00;;;9.68;87.18
12868;BME280;33517;49.866;8.320;2023-04-02T09:59:18;100490.06;;;9.63;87.62
12868;BME280;33517;49.866;8.320;2023-04-02T10:02:23;100497.59;;;9.58;87.64
12868;BME280;33517;49.866;8.320;2023-04-02T10:05:19;100503.19;;;9.55;88.18
12868;BME280;33517;49.866;8.320;2023-04-02T10:08:24;100515.53;;;9.62;88.25
12868;BME280;33517;49.866;8.320;2023-04-02T10:11:20;100521.59;;;9.63;88.65
12868;BME280;33517;49.866;8.320;2023-04-02T10:14:19;100527.66;;;9.63;88.08
12868;BME280;33517;49.866;8.320;2023-04-02T10:17:16;100518.50;;;9.67;88.57
12868;BME280;33517;49.866;8.320;2023-04-02T10:20:18;100533.38;;;9.84;88.56
12868;BME280;33517;49.866;8.320;2023-04-02T10:23:14;100531.53;;;9.77;88.39
12868;BME280;33517;49.866;8.320;2023-04-02T10:26:19;100544.00;;;9.75;89.25
12868;BME280;33517;49.866;8.320;2023-04-02T10:29:34;100553.53;;;9.76;89.03
12868;BME280;33517;49.866;8.320;2023-04-02T10:32:31;100548.19;;;9.60;88.64
12868;BME280;33517;49.866;8.320;2023-04-02T10:35:39;100560.78;;;9.82;88.54
12868;BME280;33517;49.866;8.320;2023-04-02T10:38:40;100552.94;;;10.15;88.18
12868;BME280;33517;49.866;8.320;2023-04-02T10:41:40;100557.84;;;10.18;87.90
12868;BME280;33517;49.866;8.320;2023-04-02T10:44:42;100564.66;;;10.29;88.12
12868;BME280;33517;49.866;8.320;2023-04-02T10:47:42;100574.03;;;10.40;87.76
12868;BME280;33517;49.866;8.320;2023-04-02T10:50:43;100575.38;;;10.44;86.81
12868;BME280;33517;49.866;8.320;2023-04-02T10:53:43;100579.53;;;10.62;87.17
12868;BME280;33517;49.866;8.320;2023-04-02T10:56:39;100587.56;;;10.53;86.24
12868;BME280;33517;49.866;8.320;2023-04-02T10:59:34;100590.97;;;10.37;86.96
12868;BME280;33517;49.866;8.320;2023-04-02T11:02:34;100589.78;;;10.32;86.51
12868;BME280;33517;49.866;8.320;2023-04-02T11:05:32;100603.69;;;10.58;86.98
12868;BME280;33517;49.866;8.320;2023-04-02T11:08:38;100608.19;;;10.73;85.90
12868;BME280;33517;49.866;8.320;2023-04-02T11:11:34;100605.59;;;11.05;84.49
12868;BME280;33517;49.866;8.320;2023-04-02T11:14:30;100605.59;;;11.38;82.15
12868;BME280;33517;49.866;8.320;2023-04-02T11:17:23;100618.13;;;11.52;80.79
12868;BME280;33517;49.866;8.320;2023-04-02T11:20:41;100621.41;;;11.46;80.19
12868;BME280;33517;49.866;8.320;2023-04-02T11:23:55;100625.53;;;11.32;79.14
12868;BME280;33517;49.866;8.320;2023-04-02T11:26:47;100630.63;;;11.34;78.87
12868;BME280;33517;49.866;8.320;2023-04-02T11:29:41;100639.03;;;11.21;78.18
12868;BME280;33517;49.866;8.320;2023-04-02T11:32:38;100644.81;;;11.33;78.51
12868;BME280;33517;49.866;8.320;2023-04-02T11:35:37;100638.06;;;11.38;77.58
12868;BME280;33517;49.866;8.320;2023-04-02T11:38:48;100654.50;;;11.32;77.00
12868;BME280;33517;49.866;8.320;2023-04-02T11:42:04;100656.31;;;11.40;76.34
12868;BME280;33517;49.866;8.320;2023-04-02T11:48:31;100668.50;;;11.49;74.72
12868;BME280;33517;49.866;8.320;2023-04-02T11:51:47;100664.13;;;11.65;74.36
12868;BME280;33517;49.866;8.320;2023-04-02T11:54:40;100680.56;;;11.75;74.67
12868;BME280;33517;49.866;8.320;2023-04-02T12:04:36;100688.75;;;11.32;72.28
12868;BME280;33517;49.866;8.320;2023-04-02T12:07:58;100699.59;;;11.29;73.24
12868;BME280;33517;49.866;8.320;2023-04-02T12:10:56;100698.16;;;11.27;72.21
12868;BME280;33517;49.866;8.320;2023-04-02T12:13:52;100706.88;;;11.35;72.12
12868;BME280;33517;49.866;8.320;2023-04-02T12:16:48;100709.50;;;11.35;72.02
12868;BME280;33517;49.866;8.320;2023-04-02T12:19:45;100722.97;;;11.16;72.16
12868;BME280;33517;49.866;8.320;2023-04-02T12:22:48;100719.34;;;11.09;71.98
12868;BME280;33517;49.866;8.320;2023-04-02T12:25:43;100731.66;;;11.08;72.89
12868;BME280;33517;49.866;8.320;2023-04-02T12:28:41;100730.00;;;10.99;72.32
12868;BME280;33517;49.866;8.320;2023-04-02T12:31:41;100742.84;;;10.94;72.85
12868;BME280;33517;49.866;8.320;2023-04-02T12:34:33;100740.53;;;10.99;72.51
12868;BME280;33517;49.866;8.320;2023-04-02T12:37:27;100751.50;;;10.79;73.13
12868;BME280;33517;49.866;8.320;2023-04-02T12:40:19;100754.78;;;10.81;72.96
12868;BME280;33517;49.866;8.320;2023-04-02T12:43:22;100759.97;;;10.65;73.29
12868;BME280;33517;49.866;8.320;2023-04-02T12:46:14;100762.41;;;10.58;72.93
12868;BME280;33517;49.866;8.320;2023-04-02T12:49:19;100766.53;;;10.61;73.20
12868;BME280;33517;49.866;8.320;2023-04-02T12:52:15;100769.53;;;10.66;73.27
12868;BME280;33517;49.866;8.320;2023-04-02T12:55:15;100774.78;;;10.66;72.96
12868;BME280;33517;49.866;8.320;2023-04-02T12:58:24;100772.16;;;10.66;72.76
12868;BME280;33517;49.866;8.320;2023-04-02T13:01:18;100778.81;;;10.52;72.52
12868;BME280;33517;49.866;8.320;2023-04-02T13:04:14;100780.78;;;10.50;72.74
12868;BME280;33517;49.866;8.320;2023-04-02T13:07:13;100790.63;;;10.48;72.48
12868;BME280;33517;49.866;8.320;2023-04-02T13:10:22;100791.38;;;10.66;72.87
12868;BME280;33517;49.866;8.320;2023-04-02T13:13:20;100802.84;;;10.57;72.53
12868;BME280;33517;49.866;8.320;2023-04-02T13:16:31;100804.91;;;10.46;72.41
12868;BME280;33517;49.866;8.320;2023-04-02T13:19:28;100792.66;;;10.54;72.55
12868;BME280;33517;49.866;8.320;2023-04-02T13:22:29;100802.22;;;10.38;72.78
12868;BME280;33517;49.866;8.320;2023-04-02T13:25:26;100799.75;;;10.36;72.86
12868;BME280;33517;49.866;8.320;2023-04-02T13:28:19;100800.88;;;10.34;72.01
12868;BME280;33517;49.866;8.320;2023-04-02T13:31:14;100804.50;;;10.33;72.50
12868;BME280;33517;49.866;8.320;2023-04-02T13:34:06;100805.13;;;10.27;72.50
12868;BME280;33517;49.866;8.320;2023-04-02T13:37:00;100811.75;;;10.13;72.33
12868;BME280;33517;49.866;8.320;2023-04-02T13:39:52;100820.97;;;9.99;72.92
12868;BME280;33517;49.866;8.320;2023-04-02T13:42:44;100823.59;;;9.99;73.47
12868;BME280;33517;49.866;8.320;2023-04-02T13:45:37;100825.78;;;10.04;73.24
12868;BME280;33517;49.866;8.320;2023-04-02T13:48:31;100830.75;;;9.89;73.08
12868;BME280;33517;49.866;8.320;2023-04-02T13:51:28;100845.69;;;9.89;73.71
12868;BME280;33517;49.866;8.320;2023-04-02T13:54:26;100848.53;;;9.95;73.61
12868;BME280;33517;49.866;8.320;2023-04-02T13:57:19;100849.53;;;9.94;73.43
12868;BME280;33517;49.866;8.320;2023-04-02T14:00:12;100851.91;;;9.88;73.49
12868;BME280;33517;49.866;8.320;2023-04-02T14:03:07;100853.19;;;9.84;72.69
12868;BME280;33517;49.866;8.320;2023-04-02T14:06:03;100862.56;;;9.86;73.19
12868;BME280;33517;49.866;8.320;2023-04-02T14:09:02;100865.00;;;9.80;73.36
12868;BME280;33517;49.866;8.320;2023-04-02T14:12:02;100865.03;;;9.70;72.92
12868;BME280;33517;49.866;8.320;2023-04-02T14:15:07;100879.22;;;9.60;73.53
12868;BME280;33517;49.866;8.320;2023-04-02T14:18:14;100873.03;;;9.51;73.50
12868;BME280;33517;49.866;8.320;2023-04-02T14:21:13;100884.53;;;9.50;74.38
12868;BME280;33517;49.866;8.320;2023-04-02T14:24:16;100890.22;;;9.46;74.22
12868;BME280;33517;49.866;8.320;2023-04-02T14:27:18;100887.06;;;9.42;74.68
12868;BME280;33517;49.866;8.320;2023-04-02T14:30:16;100892.72;;;9.47;74.06
12868;BME280;33517;49.866;8.320;2023-04-02T14:33:16;100899.72;;;9.56;74.19
12868;BME280;33517;49.866;8.320;2023-04-02T14:36:15;100898.03;;;9.55;73.37
12868;BME280;33517;49.866;8.320;2023-04-02T14:39:13;100900.75;;;9.63;73.50
12868;BME280;33517;49.866;8.320;2023-04-02T14:42:16;100906.59;;;9.57;73.38
12868;BME280;33517;49.866;8.320;2023-04-02T14:45:15;100904.66;;;9.59;73.15
12868;BME280;33517;49.866;8.320;2023-04-02T14:48:19;100911.91;;;9.48;72.72
12868;BME280;33517;49.866;8.320;2023-04-02T14:51:22;100917.50;;;9.35;73.81
12868;BME280;33517;49.866;8.320;2023-04-02T14:54:21;100930.00;;;9.23;74.40
12868;BME280;33517;49.866;8.320;2023-04-02T14:57:21;100934.72;;;9.10;74.03
12868;BME280;33517;49.866;8.320;2023-04-02T15:00:25;100943.84;;;9.06;74.96
12868;BME280;33517;49.866;8.320;2023-04-02T15:03:21;100947.88;;;9.01;75.24
12868;BME280;33517;49.866;8.320;2023-04-02T15:06:16;100955.22;;;8.97;74.69
12868;BME280;33517;49.866;8.320;2023-04-02T15:09:13;100952.84;;;8.94;75.20
12868;BME280;33517;49.866;8.320;2023-04-02T15:12:12;100946.78;;;8.94;75.38
12868;BME280;33517;49.866;8.320;2023-04-02T15:15:18;100957.84;;;8.97;75.72
12868;BME280;33517;49.866;8.320;2023-04-02T15:18:14;100950.94;;;8.87;75.46
12868;BME280;33517;49.866;8.320;2023-04-02T15:21:27;100966.97;;;8.84;75.67
12868;BME280;33517;49.866;8.320;2023-04-02T15:24:30;100974.72;;;8.85;75.26
12868;BME280;33517;49.866;8.320;2023-04-02T15:27:34;100978.97;;;8.86;74.81
12868;BME280;33517;49.866;8.320;2023-04-02T15:30:34;100982.84;;;8.73;74.67
12868;BME280;33517;49.866;8.320;2023-04-02T15:33:37;100981.91;;;8.64;75.36
12868;BME280;33517;49.866;8.320;2023-04-02T15:36:56;100986.84;;;8.67;76.32
12868;BME280;33517;49.866;8.320;2023-04-02T15:40:05;100988.78;;;8.65;75.83
12868;BME280;33517;49.866;8.320;2023-04-02T15:43:05;100997.94;;;8.61;75.54
12868;BME280;33517;49.866;8.320;2023-04-02T15:46:10;100998.75;;;8.62;76.49
12868;BME280;33517;49.866;8.320;2023-04-02T15:49:09;101005.09;;;8.59;77.43